sensor_id;sensor_type;location;lat;lon;timestamp;P1;durP1;ratioP1;P2;durP2;ratioP2
64684;SDS011;51109;47.414;18.954;2023-07-09T00:01:13;7.32;;;4.03;;
64684;SDS011;51109;47.414;18.954;2023-07-09T00:03:43;6.25;;;3.65;;
64684;SDS011;51109;47.414;18.954;2023-07-09T00:06:09;4.47;;;3.53;;
64684;SDS011;51109;47.414;18.954;2023-07-09T00:08:38;6.93;;;3.78;;
64684;SDS011;51109;47.414;18.954;2023-07-09T00:11:09;6.13;;;3.47;;
64684;SDS011;51109;47.414;18.954;2023-07-09T00:13:35;5.05;;;3.85;;
64684;SDS011;51109;47.414;18.954;2023-07-09T00:16:01;4.47;;;3.75;;
64684;SDS011;51109;47.414;18.954;2023-07-09T00:18:38;6.57;;;3.65;;
64684;SDS011;51109;47.414;18.954;2023-07-09T00:21:04;6.05;;;3.95;;
64684;SDS011;51109;47.414;18.954;2023-07-09T00:23:31;5.72;;;3.75;;
64684;SDS011;51109;47.414;18.954;2023-07-09T00:25:57;7.15;;;3.83;;
64684;SDS011;51109;47.414;18.954;2023-07-09T00:28:23;5.97;;;3.80;;
64684;SDS011;51109;47.414;18.954;2023-07-09T00:30:49;7.10;;;4.22;;
64684;SDS011;51109;47.414;18.954;2023-07-09T00:33:15;5.45;;;3.85;;
64684;SDS011;51109;47.414;18.954;2023-07-09T00:35:46;4.65;;;3.45;;
64684;SDS011;51109;47.414;18.954;2023-07-09T00:38:14;6.43;;;3.70;;
64684;SDS011;51109;47.414;18.954;2023-07-09T00:41:12;5.50;;;4.17;;
64684;SDS011;51109;47.414;18.954;2023-07-09T00:43:43;4.90;;;3.67;;
64684;SDS011;51109;47.414;18.954;2023-07-09T00:48:46;5.47;;;3.83;;
64684;SDS011;51109;47.414;18.954;2023-07-09T00:51:18;6.00;;;3.58;;
64684;SDS011;51109;47.414;18.954;2023-07-09T00:53:46;6.88;;;3.83;;
64684;SDS011;51109;47.414;18.954;2023-07-09T00:56:17;7.32;;;4.63;;
64684;SDS011;51109;47.414;18.954;2023-07-09T00:58:52;5.28;;;4.22;;
64684;SDS011;51109;47.414;18.954;2023-07-09T01:01:20;8.00;;;4.45;;
64684;SDS011;51109;47.414;18.954;2023-07-09T01:03:51;5.78;;;4.20;;
64684;SDS011;51109;47.414;18.954;2023-07-09T01:06:24;7.57;;;4.18;;
64684;SDS011;51109;47.414;18.954;2023-07-09T01:08:58;5.50;;;4.28;;
64684;SDS011;51109;47.414;18.954;2023-07-09T01:11:26;6.43;;;4.38;;
64684;SDS011;51109;47.414;18.954;2023-07-09T01:13:53;5.22;;;4.05;;
64684;SDS011;51109;47.414;18.954;2023-07-09T01:16:21;7.15;;;5.10;;
64684;SDS011;51109;47.414;18.954;2023-07-09T01:18:51;7.00;;;4.53;;
64684;SDS011;51109;47.414;18.954;2023-07-09T01:21:17;7.55;;;4.55;;
64684;SDS011;51109;47.414;18.954;2023-07-09T01:23:44;4.72;;;3.97;;
64684;SDS011;51109;47.414;18.954;2023-07-09T01:26:12;6.60;;;4.40;;
64684;SDS011;51109;47.414;18.954;2023-07-09T01:28:40;4.40;;;3.92;;
64684;SDS011;51109;47.414;18.954;2023-07-09T01:31:14;4.72;;;4.13;;
64684;SDS011;51109;47.414;18.954;2023-07-09T01:33:41;4.93;;;4.43;;
64684;SDS011;51109;47.414;18.954;2023-07-09T01:36:14;7.03;;;4.38;;
64684;SDS011;51109;47.414;18.954;2023-07-09T01:38:42;5.93;;;4.85;;
64684;SDS011;51109;47.414;18.954;2023-07-09T01:41:08;9.30;;;4.75;;
64684;SDS011;51109;47.414;18.954;2023-07-09T01:43:39;5.15;;;4.30;;
64684;SDS011;51109;47.414;18.954;2023-07-09T01:46:07;6.00;;;4.78;;
64684;SDS011;51109;47.414;18.954;2023-07-09T01:48:33;5.43;;;4.43;;
64684;SDS011;51109;47.414;18.954;2023-07-09T01:51:09;5.53;;;4.13;;
64684;SDS011;51109;47.414;18.954;2023-07-09T01:53:36;6.90;;;4.95;;
64684;SDS011;51109;47.414;18.954;2023-07-09T01:56:04;8.25;;;4.47;;
64684;SDS011;51109;47.414;18.954;2023-07-09T01:58:33;7.50;;;4.68;;
64684;SDS011;51109;47.414;18.954;2023-07-09T02:00:59;6.05;;;4.50;;
64684;SDS011;51109;47.414;18.954;2023-07-09T02:03:25;6.03;;;4.30;;
64684;SDS011;51109;47.414;18.954;2023-07-09T02:05:54;5.47;;;4.90;;
64684;SDS011;51109;47.414;18.954;2023-07-09T02:08:23;7.78;;;4.43;;
64684;SDS011;51109;47.414;18.954;2023-07-09T02:10:49;5.50;;;4.57;;
64684;SDS011;51109;47.414;18.954;2023-07-09T02:13:15;7.05;;;4.78;;
64684;SDS011;51109;47.414;18.954;2023-07-09T02:15:44;7.38;;;5.20;;
64684;SDS011;51109;47.414;18.954;2023-07-09T02:18:11;7.35;;;5.35;;
64684;SDS011;51109;47.414;18.954;2023-07-09T02:20:38;6.80;;;4.82;;
64684;SDS011;51109;47.414;18.954;2023-07-09T02:23:04;7.18;;;4.78;;
64684;SDS011;51109;47.414;18.954;2023-07-09T02:25:34;6.00;;;5.13;;
64684;SDS011;51109;47.414;18.954;2023-07-09T02:28:00;6.80;;;4.63;;
64684;SDS011;51109;47.414;18.954;2023-07-09T02:30:26;8.23;;;5.00;;
64684;SDS011;51109;47.414;18.954;2023-07-09T02:32:52;5.10;;;4.57;;
64684;SDS011;51109;47.414;18.954;2023-07-09T02:35:19;6.72;;;4.63;;
64684;SDS011;51109;47.414;18.954;2023-07-09T02:37:46;8.75;;;4.45;;
64684;SDS011;51109;47.414;18.954;2023-07-09T02:40:12;5.25;;;4.68;;
64684;SDS011;51109;47.414;18.954;2023-07-09T02:42:41;8.55;;;4.90;;
64684;SDS011;51109;47.414;18.954;2023-07-09T02:45:07;7.38;;;5.43;;
64684;SDS011;51109;47.414;18.954;2023-07-09T02:47:33;8.20;;;4.75;;
64684;SDS011;51109;47.414;18.954;2023-07-09T02:49:59;6.28;;;4.85;;
64684;SDS011;51109;47.414;18.954;2023-07-09T02:52:25;6.47;;;4.88;;
64684;SDS011;51109;47.414;18.954;2023-07-09T02:54:52;7.65;;;5.22;;
64684;SDS011;51109;47.414;18.954;2023-07-09T02:57:18;5.18;;;4.60;;
64684;SDS011;51109;47.414;18.954;2023-07-09T02:59:44;7.13;;;4.57;;
64684;SDS011;51109;47.414;18.954;2023-07-09T03:02:10;4.88;;;4.35;;
64684;SDS011;51109;47.414;18.954;2023-07-09T03:04:36;6.10;;;4.28;;
64684;SDS011;51109;47.414;18.954;2023-07-09T03:07:02;4.95;;;4.45;;
64684;SDS011;51109;47.414;18.954;2023-07-09T03:09:28;5.53;;;4.43;;
64684;SDS011;51109;47.414;18.954;2023-07-09T03:11:55;9.15;;;4.05;;
64684;SDS011;51109;47.414;18.954;2023-07-09T03:14:21;6.70;;;4.35;;
64684;SDS011;51109;47.414;18.954;2023-07-09T03:16:47;7.65;;;4.97;;
64684;SDS011;51109;47.414;18.954;2023-07-09T03:19:13;8.93;;;4.80;;
64684;SDS011;51109;47.414;18.954;2023-07-09T03:21:39;5.07;;;4.05;;
64684;SDS011;51109;47.414;18.954;2023-07-09T03:24:05;5.47;;;4.63;;
64684;SDS011;51109;47.414;18.954;2023-07-09T03:26:32;5.03;;;4.03;;
64684;SDS011;51109;47.414;18.954;2023-07-09T03:28:58;8.10;;;4.75;;
64684;SDS011;51109;47.414;18.954;2023-07-09T03:31:24;7.35;;;4.40;;
64684;SDS011;51109;47.414;18.954;2023-07-09T03:33:50;6.97;;;4.82;;
64684;SDS011;51109;47.414;18.954;2023-07-09T03:36:17;6.15;;;4.38;;
64684;SDS011;51109;47.414;18.954;2023-07-09T03:38:45;5.20;;;4.38;;
64684;SDS011;51109;47.414;18.954;2023-07-09T03:41:11;6.03;;;4.70;;
64684;SDS011;51109;47.414;18.954;2023-07-09T03:43:37;8.25;;;4.40;;
64684;SDS011;51109;47.414;18.954;2023-07-09T03:46:03;4.70;;;4.15;;
64684;SDS011;51109;47.414;18.954;2023-07-09T03:48:28;9.50;;;4.65;;
64684;SDS011;51109;47.414;18.954;2023-07-09T03:50:55;7.28;;;4.13;;
64684;SDS011;51109;47.414;18.954;2023-07-09T03:53:21;5.88;;;3.80;;
64684;SDS011;51109;47.414;18.954;2023-07-09T03:55:51;5.13;;;3.80;;
64684;SDS011;51109;47.414;18.954;2023-07-09T03:58:18;4.88;;;3.95;;
64684;SDS011;51109;47.414;18.954;2023-07-09T04:00:44;5.53;;;4.15;;
64684;SDS011;51109;47.414;18.954;2023-07-09T04:03:10;5.53;;;4.38;;
64684;SDS011;51109;47.414;18.954;2023-07-09T04:05:36;4.57;;;3.92;;
64684;SDS011;51109;47.414;18.954;2023-07-09T04:08:03;4.55;;;4.15;;
64684;SDS011;51109;47.414;18.954;2023-07-09T04:10:30;6.82;;;4.25;;
64684;SDS011;51109;47.414;18.954;2023-07-09T04:12:56;5.93;;;4.45;;
64684;SDS011;51109;47.414;18.954;2023-07-09T04:15:22;7.03;;;4.30;;
64684;SDS011;51109;47.414;18.954;2023-07-09T04:17:48;6.25;;;4.70;;
64684;SDS011;51109;47.414;18.954;2023-07-09T04:20:14;7.03;;;4.32;;
64684;SDS011;51109;47.414;18.954;2023-07-09T04:22:41;5.07;;;4.53;;
64684;SDS011;51109;47.414;18.954;2023-07-09T04:25:07;6.22;;;4.45;;
64684;SDS011;51109;47.414;18.954;2023-07-09T04:27:35;5.05;;;4.55;;
64684;SDS011;51109;47.414;18.954;2023-07-09T04:30:02;4.80;;;4.18;;
64684;SDS011;51109;47.414;18.954;2023-07-09T04:32:30;6.35;;;4.22;;
64684;SDS011;51109;47.414;18.954;2023-07-09T04:34:56;5.05;;;4.32;;
64684;SDS011;51109;47.414;18.954;2023-07-09T04:37:23;6.40;;;4.07;;
64684;SDS011;51109;47.414;18.954;2023-07-09T04:39:48;6.22;;;4.05;;
64684;SDS011;51109;47.414;18.954;2023-07-09T04:42:15;4.82;;;4.30;;
64684;SDS011;51109;47.414;18.954;2023-07-09T04:44:42;4.00;;;3.60;;
64684;SDS011;51109;47.414;18.954;2023-07-09T04:47:08;6.13;;;4.13;;
64684;SDS011;51109;47.414;18.954;2023-07-09T04:49:34;4.80;;;4.15;;
64684;SDS011;51109;47.414;18.954;2023-07-09T04:52:00;5.00;;;3.72;;
64684;SDS011;51109;47.414;18.954;2023-07-09T04:54:26;5.10;;;3.80;;
64684;SDS011;51109;47.414;18.954;2023-07-09T04:56:53;5.32;;;3.55;;
64684;SDS011;51109;47.414;18.954;2023-07-09T04:59:19;5.93;;;3.45;;
64684;SDS011;51109;47.414;18.954;2023-07-09T05:01:45;5.15;;;3.80;;
64684;SDS011;51109;47.414;18.954;2023-07-09T05:04:12;6.03;;;3.83;;
64684;SDS011;51109;47.414;18.954;2023-07-09T05:06:38;6.35;;;3.53;;
64684;SDS011;51109;47.414;18.954;2023-07-09T05:09:04;5.20;;;3.42;;
64684;SDS011;51109;47.414;18.954;2023-07-09T05:11:33;5.57;;;3.45;;
64684;SDS011;51109;47.414;18.954;2023-07-09T05:14:00;3.80;;;3.28;;
64684;SDS011;51109;47.414;18.954;2023-07-09T05:16:26;4.70;;;3.95;;
64684;SDS011;51109;47.414;18.954;2023-07-09T05:18:52;4.95;;;4.00;;
64684;SDS011;51109;47.414;18.954;2023-07-09T05:21:18;5.18;;;3.70;;
64684;SDS011;51109;47.414;18.954;2023-07-09T05:23:44;4.28;;;3.65;;
64684;SDS011;51109;47.414;18.954;2023-07-09T05:26:09;4.75;;;3.45;;
64684;SDS011;51109;47.414;18.954;2023-07-09T05:28:36;6.55;;;4.15;;
64684;SDS011;51109;47.414;18.954;2023-07-09T05:31:02;5.97;;;3.80;;
64684;SDS011;51109;47.414;18.954;2023-07-09T05:33:30;4.10;;;3.70;;
64684;SDS011;51109;47.414;18.954;2023-07-09T05:35:56;7.88;;;3.85;;
64684;SDS011;51109;47.414;18.954;2023-07-09T05:38:22;4.45;;;3.38;;
64684;SDS011;51109;47.414;18.954;2023-07-09T05:40:48;5.47;;;3.80;;
64684;SDS011;51109;47.414;18.954;2023-07-09T05:43:13;6.35;;;4.53;;
64684;SDS011;51109;47.414;18.954;2023-07-09T05:45:39;6.00;;;3.60;;
64684;SDS011;51109;47.414;18.954;2023-07-09T05:48:06;5.45;;;3.60;;
64684;SDS011;51109;47.414;18.954;2023-07-09T05:50:33;6.47;;;4.50;;
64684;SDS011;51109;47.414;18.954;2023-07-09T05:53:00;5.15;;;3.83;;
64684;SDS011;51109;47.414;18.954;2023-07-09T05:55:26;7.00;;;3.90;;
64684;SDS011;51109;47.414;18.954;2023-07-09T05:57:53;5.20;;;4.32;;
64684;SDS011;51109;47.414;18.954;2023-07-09T06:00:19;5.68;;;3.97;;
64684;SDS011;51109;47.414;18.954;2023-07-09T06:02:45;5.55;;;3.95;;
64684;SDS011;51109;47.414;18.954;2023-07-09T06:05:11;7.78;;;4.35;;
64684;SDS011;51109;47.414;18.954;2023-07-09T06:07:37;3.83;;;3.40;;
64684;SDS011;51109;47.414;18.954;2023-07-09T06:10:04;7.35;;;5.35;;
64684;SDS011;51109;47.414;18.954;2023-07-09T06:12:33;6.18;;;4.30;;
64684;SDS011;51109;47.414;18.954;2023-07-09T06:15:00;7.30;;;4.03;;
64684;SDS011;51109;47.414;18.954;2023-07-09T06:17:26;5.38;;;3.97;;
64684;SDS011;51109;47.414;18.954;2023-07-09T06:19:52;7.32;;;3.97;;
64684;SDS011;51109;47.414;18.954;2023-07-09T06:22:17;6.15;;;3.60;;
64684;SDS011;51109;47.414;18.954;2023-07-09T06:24:44;7.55;;;4.10;;
64684;SDS011;51109;47.414;18.954;2023-07-09T06:27:11;6.82;;;3.72;;
64684;SDS011;51109;47.414;18.954;2023-07-09T06:29:37;5.63;;;3.83;;
64684;SDS011;51109;47.414;18.954;2023-07-09T06:32:03;4.75;;;3.95;;
64684;SDS011;51109;47.414;18.954;2023-07-09T06:34:29;6.68;;;4.53;;
64684;SDS011;51109;47.414;18.954;2023-07-09T06:36:56;7.30;;;4.43;;
64684;SDS011;51109;47.414;18.954;2023-07-09T06:39:22;7.20;;;4.32;;
64684;SDS011;51109;47.414;18.954;2023-07-09T06:41:49;9.90;;;4.57;;
64684;SDS011;51109;47.414;18.954;2023-07-09T06:44:15;6.18;;;4.60;;
64684;SDS011;51109;47.414;18.954;2023-07-09T06:46:40;5.82;;;4.00;;
64684;SDS011;51109;47.414;18.954;2023-07-09T06:49:06;6.25;;;4.03;;
64684;SDS011;51109;47.414;18.954;2023-07-09T06:51:32;6.18;;;4.40;;
64684;SDS011;51109;47.414;18.954;2023-07-09T06:53:58;7.18;;;4.65;;
64684;SDS011;51109;47.414;18.954;2023-07-09T06:56:24;6.18;;;4.20;;
64684;SDS011;51109;47.414;18.954;2023-07-09T06:58:50;6.03;;;4.05;;
64684;SDS011;51109;47.414;18.954;2023-07-09T07:01:16;4.85;;;4.05;;
64684;SDS011;51109;47.414;18.954;2023-07-09T07:03:42;9.55;;;4.60;;
64684;SDS011;51109;47.414;18.954;2023-07-09T07:06:08;5.45;;;4.28;;
64684;SDS011;51109;47.414;18.954;2023-07-09T07:08:34;7.00;;;3.55;;
64684;SDS011;51109;47.414;18.954;2023-07-09T07:11:01;7.25;;;3.25;;
64684;SDS011;51109;47.414;18.954;2023-07-09T07:13:30;4.50;;;3.58;;
64684;SDS011;51109;47.414;18.954;2023-07-09T07:16:04;4.40;;;3.33;;
64684;SDS011;51109;47.414;18.954;2023-07-09T07:18:32;5.72;;;3.35;;
64684;SDS011;51109;47.414;18.954;2023-07-09T07:20:58;4.90;;;2.78;;
64684;SDS011;51109;47.414;18.954;2023-07-09T07:23:25;4.18;;;3.13;;
64684;SDS011;51109;47.414;18.954;2023-07-09T07:25:51;4.00;;;2.90;;
64684;SDS011;51109;47.414;18.954;2023-07-09T07:28:17;3.92;;;3.35;;
64684;SDS011;51109;47.414;18.954;2023-07-09T07:30:43;5.43;;;2.95;;
64684;SDS011;51109;47.414;18.954;2023-07-09T07:33:10;4.30;;;2.90;;
64684;SDS011;51109;47.414;18.954;2023-07-09T07:35:36;3.45;;;3.15;;
64684;SDS011;51109;47.414;18.954;2023-07-09T07:38:02;3.40;;;3.10;;
64684;SDS011;51109;47.414;18.954;2023-07-09T07:40:28;4.97;;;3.20;;
64684;SDS011;51109;47.414;18.954;2023-07-09T07:42:54;5.13;;;3.42;;
64684;SDS011;51109;47.414;18.954;2023-07-09T07:45:21;7.65;;;3.30;;
64684;SDS011;51109;47.414;18.954;2023-07-09T07:47:47;5.13;;;3.63;;
64684;SDS011;51109;47.414;18.954;2023-07-09T07:50:13;3.53;;;2.95;;
64684;SDS011;51109;47.414;18.954;2023-07-09T07:52:39;6.20;;;3.30;;
64684;SDS011;51109;47.414;18.954;2023-07-09T07:55:08;5.15;;;3.58;;
64684;SDS011;51109;47.414;18.954;2023-07-09T07:57:35;3.42;;;3.08;;
64684;SDS011;51109;47.414;18.954;2023-07-09T08:00:01;4.30;;;3.08;;
64684;SDS011;51109;47.414;18.954;2023-07-09T08:02:28;6.63;;;3.50;;
64684;SDS011;51109;47.414;18.954;2023-07-09T08:04:54;6.75;;;3.22;;
64684;SDS011;51109;47.414;18.954;2023-07-09T08:07:20;5.82;;;3.38;;
64684;SDS011;51109;47.414;18.954;2023-07-09T08:09:46;6.88;;;3.30;;
64684;SDS011;51109;47.414;18.954;2023-07-09T08:12:13;4.95;;;3.25;;
64684;SDS011;51109;47.414;18.954;2023-07-09T08:14:40;4.30;;;3.58;;
64684;SDS011;51109;47.414;18.954;2023-07-09T08:17:07;4.35;;;3.72;;
64684;SDS011;51109;47.414;18.954;2023-07-09T08:19:43;5.13;;;3.40;;
64684;SDS011;51109;47.414;18.954;2023-07-09T08:22:15;4.30;;;3.13;;
64684;SDS011;51109;47.414;18.954;2023-07-09T08:24:41;4.88;;;3.15;;
64684;SDS011;51109;47.414;18.954;2023-07-09T08:27:08;4.03;;;3.45;;
64684;SDS011;51109;47.414;18.954;2023-07-09T08:29:35;3.67;;;3.25;;
64684;SDS011;51109;47.414;18.954;2023-07-09T08:32:01;4.20;;;3.40;;
64684;SDS011;51109;47.414;18.954;2023-07-09T08:34:27;4.30;;;3.20;;
64684;SDS011;51109;47.414;18.954;2023-07-09T08:36:53;4.03;;;3.03;;
64684;SDS011;51109;47.414;18.954;2023-07-09T08:39:19;3.15;;;2.85;;
64684;SDS011;51109;47.414;18.954;2023-07-09T08:47:02;7.88;;;3.92;;
64684;SDS011;51109;47.414;18.954;2023-07-09T08:52:35;6.45;;;3.30;;
64684;SDS011;51109;47.414;18.954;2023-07-09T08:55:11;4.95;;;3.40;;
64684;SDS011;51109;47.414;18.954;2023-07-09T08:57:43;5.63;;;3.20;;
64684;SDS011;51109;47.414;18.954;2023-07-09T09:00:26;6.00;;;3.15;;
64684;SDS011;51109;47.414;18.954;2023-07-09T09:03:11;7.40;;;3.72;;
64684;SDS011;51109;47.414;18.954;2023-07-09T09:05:43;8.93;;;4.63;;
64684;SDS011;51109;47.414;18.954;2023-07-09T09:13:39;6.93;;;3.50;;
64684;SDS011;51109;47.414;18.954;2023-07-09T09:16:11;6.75;;;3.20;;
64684;SDS011;51109;47.414;18.954;2023-07-09T09:18:59;5.18;;;3.72;;
64684;SDS011;51109;47.414;18.954;2023-07-09T09:21:29;5.90;;;3.15;;
64684;SDS011;51109;47.414;18.954;2023-07-09T09:24:01;4.07;;;3.67;;
64684;SDS011;51109;47.414;18.954;2023-07-09T09:26:51;7.00;;;3.17;;
64684;SDS011;51109;47.414;18.954;2023-07-09T09:29:23;5.63;;;3.20;;
64684;SDS011;51109;47.414;18.954;2023-07-09T09:31:52;3.75;;;3.08;;
64684;SDS011;51109;47.414;18.954;2023-07-09T09:34:25;4.22;;;3.25;;
64684;SDS011;51109;47.414;18.954;2023-07-09T09:36:54;3.28;;;2.90;;
64684;SDS011;51109;47.414;18.954;2023-07-09T09:39:22;3.33;;;3.03;;
64684;SDS011;51109;47.414;18.954;2023-07-09T09:41:51;5.22;;;3.00;;
64684;SDS011;51109;47.414;18.954;2023-07-09T09:44:26;7.97;;;3.20;;
64684;SDS011;51109;47.414;18.954;2023-07-09T09:46:55;3.13;;;2.92;;
64684;SDS011;51109;47.414;18.954;2023-07-09T09:49:22;4.05;;;3.38;;
64684;SDS011;51109;47.414;18.954;2023-07-09T09:51:48;3.50;;;3.05;;
64684;SDS011;51109;47.414;18.954;2023-07-09T09:54:21;4.05;;;3.25;;
64684;SDS011;51109;47.414;18.954;2023-07-09T09:56:52;4.47;;;3.38;;
64684;SDS011;51109;47.414;18.954;2023-07-09T09:59:27;5.13;;;3.10;;
64684;SDS011;51109;47.414;18.954;2023-07-09T10:02:05;3.88;;;3.58;;
64684;SDS011;51109;47.414;18.954;2023-07-09T10:04:43;4.20;;;3.58;;
64684;SDS011;51109;47.414;18.954;2023-07-09T10:07:32;7.05;;;3.10;;
64684;SDS011;51109;47.414;18.954;2023-07-09T10:10:01;4.32;;;3.03;;
64684;SDS011;51109;47.414;18.954;2023-07-09T10:15:16;5.28;;;3.22;;
64684;SDS011;51109;47.414;18.954;2023-07-09T10:20:41;4.25;;;3.20;;
64684;SDS011;51109;47.414;18.954;2023-07-09T10:23:25;5.77;;;3.40;;
64684;SDS011;51109;47.414;18.954;2023-07-09T10:26:12;5.22;;;3.25;;
64684;SDS011;51109;47.414;18.954;2023-07-09T10:29:04;3.75;;;3.45;;
64684;SDS011;51109;47.414;18.954;2023-07-09T10:34:31;6.60;;;3.30;;
64684;SDS011;51109;47.414;18.954;2023-07-09T10:37:23;5.20;;;3.28;;
64684;SDS011;51109;47.414;18.954;2023-07-09T10:39:54;4.20;;;3.10;;
64684;SDS011;51109;47.414;18.954;2023-07-09T10:42:40;3.33;;;2.88;;
64684;SDS011;51109;47.414;18.954;2023-07-09T10:47:44;3.65;;;3.35;;
64684;SDS011;51109;47.414;18.954;2023-07-09T10:50:24;6.43;;;3.72;;
64684;SDS011;51109;47.414;18.954;2023-07-09T10:52:56;7.30;;;3.95;;
64684;SDS011;51109;47.414;18.954;2023-07-09T10:55:31;4.32;;;3.63;;
64684;SDS011;51109;47.414;18.954;2023-07-09T10:58:25;4.07;;;3.55;;
64684;SDS011;51109;47.414;18.954;2023-07-09T11:01:00;3.65;;;3.10;;
64684;SDS011;51109;47.414;18.954;2023-07-09T11:06:22;6.00;;;3.90;;
64684;SDS011;51109;47.414;18.954;2023-07-09T11:09:01;3.72;;;3.35;;
64684;SDS011;51109;47.414;18.954;2023-07-09T11:11:33;2.92;;;2.72;;
64684;SDS011;51109;47.414;18.954;2023-07-09T11:14:08;3.17;;;2.90;;
64684;SDS011;51109;47.414;18.954;2023-07-09T11:16:44;3.55;;;3.00;;
64684;SDS011;51109;47.414;18.954;2023-07-09T11:19:13;5.63;;;3.10;;
64684;SDS011;51109;47.414;18.954;2023-07-09T11:24:50;3.78;;;2.88;;
64684;SDS011;51109;47.414;18.954;2023-07-09T11:27:22;4.82;;;3.33;;
64684;SDS011;51109;47.414;18.954;2023-07-09T11:30:00;4.15;;;3.50;;
64684;SDS011;51109;47.414;18.954;2023-07-09T11:32:30;4.97;;;3.00;;
64684;SDS011;51109;47.414;18.954;2023-07-09T11:35:06;6.43;;;3.47;;
64684;SDS011;51109;47.414;18.954;2023-07-09T11:37:43;4.03;;;3.65;;
64684;SDS011;51109;47.414;18.954;2023-07-09T11:40:10;4.20;;;3.53;;
64684;SDS011;51109;47.414;18.954;2023-07-09T11:42:59;6.30;;;3.45;;
64684;SDS011;51109;47.414;18.954;2023-07-09T11:45:32;3.83;;;3.30;;
64684;SDS011;51109;47.414;18.954;2023-07-09T11:48:01;4.00;;;3.10;;
64684;SDS011;51109;47.414;18.954;2023-07-09T11:50:41;6.30;;;3.60;;
64684;SDS011;51109;47.414;18.954;2023-07-09T11:55:44;4.13;;;3.00;;
64684;SDS011;51109;47.414;18.954;2023-07-09T11:58:13;3.47;;;3.17;;
64684;SDS011;51109;47.414;18.954;2023-07-09T12:00:41;4.15;;;3.50;;
64684;SDS011;51109;47.414;18.954;2023-07-09T12:03:10;3.40;;;3.10;;
64684;SDS011;51109;47.414;18.954;2023-07-09T12:05:45;3.33;;;3.03;;
64684;SDS011;51109;47.414;18.954;2023-07-09T12:08:18;3.40;;;3.10;;
64684;SDS011;51109;47.414;18.954;2023-07-09T12:10:52;3.85;;;3.20;;
64684;SDS011;51109;47.414;18.954;2023-07-09T12:13:18;3.78;;;3.40;;
64684;SDS011;51109;47.414;18.954;2023-07-09T12:15:44;3.55;;;3.25;;
64684;SDS011;51109;47.414;18.954;2023-07-09T12:18:12;5.07;;;3.40;;
64684;SDS011;51109;47.414;18.954;2023-07-09T12:20:40;4.97;;;3.95;;
64684;SDS011;51109;47.414;18.954;2023-07-09T12:25:55;3.83;;;3.15;;
64684;SDS011;51109;47.414;18.954;2023-07-09T12:28:26;4.38;;;3.22;;
64684;SDS011;51109;47.414;18.954;2023-07-09T12:30:53;4.07;;;3.67;;
64684;SDS011;51109;47.414;18.954;2023-07-09T12:33:22;4.03;;;3.60;;
64684;SDS011;51109;47.414;18.954;2023-07-09T12:35:57;3.80;;;3.28;;
64684;SDS011;51109;47.414;18.954;2023-07-09T12:38:30;4.43;;;4.03;;
64684;SDS011;51109;47.414;18.954;2023-07-09T12:41:19;3.78;;;3.40;;
64684;SDS011;51109;47.414;18.954;2023-07-09T12:43:51;3.17;;;2.90;;
64684;SDS011;51109;47.414;18.954;2023-07-09T12:46:19;4.30;;;2.92;;
64684;SDS011;51109;47.414;18.954;2023-07-09T12:48:46;3.90;;;3.40;;
64684;SDS011;51109;47.414;18.954;2023-07-09T12:51:16;4.78;;;3.83;;
64684;SDS011;51109;47.414;18.954;2023-07-09T12:53:46;3.58;;;3.28;;
64684;SDS011;51109;47.414;18.954;2023-07-09T12:56:14;3.50;;;3.20;;
64684;SDS011;51109;47.414;18.954;2023-07-09T12:58:42;4.03;;;3.63;;
64684;SDS011;51109;47.414;18.954;2023-07-09T13:01:16;3.88;;;3.42;;
64684;SDS011;51109;47.414;18.954;2023-07-09T13:03:52;3.38;;;3.08;;
64684;SDS011;51109;47.414;18.954;2023-07-09T13:06:27;5.28;;;3.15;;
64684;SDS011;51109;47.414;18.954;2023-07-09T13:09:05;3.97;;;3.30;;
64684;SDS011;51109;47.414;18.954;2023-07-09T13:11:49;3.30;;;3.00;;
64684;SDS011;51109;47.414;18.954;2023-07-09T13:14:37;3.70;;;3.20;;
64684;SDS011;51109;47.414;18.954;2023-07-09T13:17:03;3.60;;;3.30;;
64684;SDS011;51109;47.414;18.954;2023-07-09T13:19:30;4.35;;;3.17;;
64684;SDS011;51109;47.414;18.954;2023-07-09T13:21:56;4.50;;;3.08;;
64684;SDS011;51109;47.414;18.954;2023-07-09T13:24:23;3.80;;;3.28;;
64684;SDS011;51109;47.414;18.954;2023-07-09T13:26:51;3.40;;;2.90;;
64684;SDS011;51109;47.414;18.954;2023-07-09T13:29:18;3.60;;;3.30;;
64684;SDS011;51109;47.414;18.954;2023-07-09T13:31:46;3.33;;;2.85;;
64684;SDS011;51109;47.414;18.954;2023-07-09T13:34:17;3.47;;;3.17;;
64684;SDS011;51109;47.414;18.954;2023-07-09T13:36:48;3.20;;;2.90;;
64684;SDS011;51109;47.414;18.954;2023-07-09T13:39:15;6.85;;;3.53;;
64684;SDS011;51109;47.414;18.954;2023-07-09T13:41:42;3.50;;;3.13;;
64684;SDS011;51109;47.414;18.954;2023-07-09T13:44:13;3.60;;;3.25;;
64684;SDS011;51109;47.414;18.954;2023-07-09T13:46:41;4.00;;;3.17;;
64684;SDS011;51109;47.414;18.954;2023-07-09T13:49:15;5.07;;;3.00;;
64684;SDS011;51109;47.414;18.954;2023-07-09T13:51:43;4.63;;;2.90;;
64684;SDS011;51109;47.414;18.954;2023-07-09T13:54:18;3.92;;;2.83;;
64684;SDS011;51109;47.414;18.954;2023-07-09T13:56:47;3.30;;;3.00;;
64684;SDS011;51109;47.414;18.954;2023-07-09T13:59:15;3.28;;;2.97;;
64684;SDS011;51109;47.414;18.954;2023-07-09T14:01:47;3.55;;;3.00;;
64684;SDS011;51109;47.414;18.954;2023-07-09T14:04:18;5.90;;;3.40;;
64684;SDS011;51109;47.414;18.954;2023-07-09T14:06:45;4.05;;;3.63;;
64684;SDS011;51109;47.414;18.954;2023-07-09T14:09:12;3.63;;;3.28;;
64684;SDS011;51109;47.414;18.954;2023-07-09T14:11:46;4.03;;;3.15;;
64684;SDS011;51109;47.414;18.954;2023-07-09T14:14:21;4.30;;;3.38;;
64684;SDS011;51109;47.414;18.954;2023-07-09T14:16:55;3.33;;;3.03;;
64684;SDS011;51109;47.414;18.954;2023-07-09T14:19:22;3.67;;;3.38;;
64684;SDS011;51109;47.414;18.954;2023-07-09T14:21:49;4.68;;;3.03;;
64684;SDS011;51109;47.414;18.954;2023-07-09T14:24:24;3.40;;;3.10;;
64684;SDS011;51109;47.414;18.954;2023-07-09T14:26:52;9.43;;;3.08;;
64684;SDS011;51109;47.414;18.954;2023-07-09T14:29:20;4.50;;;3.05;;
64684;SDS011;51109;47.414;18.954;2023-07-09T14:31:47;6.22;;;3.10;;
64684;SDS011;51109;47.414;18.954;2023-07-09T14:34:16;3.85;;;3.28;;
64684;SDS011;51109;47.414;18.954;2023-07-09T14:36:48;3.63;;;2.97;;
64684;SDS011;51109;47.414;18.954;2023-07-09T14:39:15;5.75;;;3.17;;
64684;SDS011;51109;47.414;18.954;2023-07-09T14:41:41;3.38;;;3.03;;
64684;SDS011;51109;47.414;18.954;2023-07-09T14:44:15;3.63;;;3.25;;
64684;SDS011;51109;47.414;18.954;2023-07-09T14:46:46;4.10;;;3.40;;
64684;SDS011;51109;47.414;18.954;2023-07-09T14:49:12;4.03;;;3.42;;
64684;SDS011;51109;47.414;18.954;2023-07-09T14:51:38;5.55;;;3.70;;
64684;SDS011;51109;47.414;18.954;2023-07-09T14:54:09;3.60;;;2.95;;
64684;SDS011;51109;47.414;18.954;2023-07-09T14:56:51;3.30;;;3.00;;
64684;SDS011;51109;47.414;18.954;2023-07-09T14:59:18;3.38;;;3.00;;
64684;SDS011;51109;47.414;18.954;2023-07-09T15:01:45;3.35;;;2.97;;
64684;SDS011;51109;47.414;18.954;2023-07-09T15:06:49;3.60;;;3.30;;
64684;SDS011;51109;47.414;18.954;2023-07-09T15:09:16;3.42;;;3.13;;
64684;SDS011;51109;47.414;18.954;2023-07-09T15:11:52;4.85;;;3.13;;
64684;SDS011;51109;47.414;18.954;2023-07-09T15:14:24;4.13;;;2.63;;
64684;SDS011;51109;47.414;18.954;2023-07-09T15:16:51;3.38;;;3.08;;
64684;SDS011;51109;47.414;18.954;2023-07-09T15:19:20;4.63;;;3.00;;
64684;SDS011;51109;47.414;18.954;2023-07-09T15:21:47;5.07;;;3.17;;
64684;SDS011;51109;47.414;18.954;2023-07-09T15:24:19;3.17;;;2.88;;
64684;SDS011;51109;47.414;18.954;2023-07-09T15:26:55;3.45;;;3.15;;